Clove Hill, Mississippi
Current Conditions -  °F | °C
As of 5:15 AM on Thursday 18 Dec 2014 (Local Time) from KCKM Reporting Station
Overcast Overcast  
Wind Chill: 36°   Ceiling: 4800
Heat Index: 39°   Visibility: 9mi
Dew Point: 37°   Wind: 5mph
Humidity: 93%   Direction: 60°ENE
Pressure: 30.22"   Gusts: NA
Location:  34.2601°N, 90.487°W
Report Text: KCKM 181115Z AUTO 06004KT 9SM OVC048 04/03 A3022 RMK AO1
Loading
Personal Weather Stations






























Interactive Weather Map New forecast layout! Learn more

10-Day Weather Forecast

Advertisements
Track Severe Weather on mobile